createdAt,value
2022-11-10T00:01:08.753Z,15.28
2022-11-10T00:03:37.305Z,15.28
2022-11-10T00:06:05.023Z,15.25
2022-11-10T00:08:32.090Z,15.26
2022-11-10T00:10:59.318Z,15.21
2022-11-10T00:13:35.513Z,15.25
2022-11-10T00:16:22.832Z,15.28
2022-11-10T00:18:50.341Z,15.25
2022-11-10T00:21:18.496Z,15.31
2022-11-10T00:23:49.439Z,15.36
2022-11-10T00:26:19.206Z,15.33
2022-11-10T00:28:46.084Z,15.36
2022-11-10T00:31:13.573Z,15.37
2022-11-10T00:33:43.219Z,15.39
2022-11-10T00:36:11.133Z,15.37
2022-11-10T00:38:37.914Z,15.27
2022-11-10T00:41:05.075Z,15.45
2022-11-10T00:43:32.498Z,15.50
2022-11-10T00:45:59.486Z,15.50
2022-11-10T00:48:26.300Z,15.47
2022-11-10T00:50:53.147Z,15.54
2022-11-10T00:53:20.283Z,15.54
2022-11-10T00:55:47.486Z,15.50
2022-11-10T00:58:15.479Z,15.53
2022-11-10T01:00:42.281Z,15.45
2022-11-10T01:03:16.766Z,15.39
2022-11-10T01:05:44.283Z,15.33
2022-11-10T01:08:11.334Z,15.28
2022-11-10T01:10:38.236Z,15.25
2022-11-10T01:13:04.964Z,15.29
2022-11-10T01:15:32.923Z,15.30
2022-11-10T01:17:59.773Z,15.27
2022-11-10T01:20:27.094Z,15.25
2022-11-10T01:22:53.806Z,15.27
2022-11-10T01:25:21.368Z,15.24
2022-11-10T01:27:48.069Z,15.27
2022-11-10T01:30:15.515Z,15.21
2022-11-10T01:32:42.400Z,15.25
2022-11-10T01:35:09.621Z,15.22
2022-11-10T01:37:36.669Z,15.28
2022-11-10T01:40:04.834Z,15.29
2022-11-10T01:42:58.613Z,15.19
2022-11-10T01:45:25.404Z,15.25
2022-11-10T01:47:54.958Z,15.21
2022-11-10T01:50:24.560Z,15.26
2022-11-10T01:52:55.276Z,15.21
2022-11-10T01:55:23.587Z,15.20
2022-11-10T01:57:51.066Z,15.25
2022-11-10T02:00:18.876Z,15.24
2022-11-10T02:03:20.920Z,15.23
2022-11-10T02:05:49.365Z,15.19
2022-11-10T02:08:18.132Z,15.16
2022-11-10T02:10:44.964Z,15.06
2022-11-10T02:13:12.630Z,15.08
2022-11-10T02:15:39.570Z,15.05
2022-11-10T02:18:06.330Z,14.97
2022-11-10T02:20:33.413Z,15.01
2022-11-10T02:23:10.911Z,14.89
2022-11-10T02:25:37.938Z,14.92
2022-11-10T02:28:04.984Z,14.95
2022-11-10T02:30:31.793Z,14.93
2022-11-10T02:32:58.608Z,14.84
2022-11-10T02:35:25.401Z,14.87
2022-11-10T02:37:52.082Z,14.86
2022-11-10T02:40:19.046Z,14.88
2022-11-10T02:42:45.781Z,14.90
2022-11-10T02:45:12.483Z,14.91
2022-11-10T02:47:39.812Z,14.89
2022-11-10T02:50:07.015Z,14.86
2022-11-10T02:52:33.722Z,15.00
2022-11-10T02:55:00.549Z,14.93
2022-11-10T02:57:27.287Z,15.02
2022-11-10T02:59:53.976Z,14.99
2022-11-10T03:02:20.836Z,15.01
2022-11-10T03:04:47.531Z,14.99
2022-11-10T03:07:14.315Z,14.95
2022-11-10T03:09:41.216Z,14.98
2022-11-10T03:12:08.005Z,14.90
2022-11-10T03:14:34.725Z,14.95
2022-11-10T03:17:01.529Z,14.89
2022-11-10T03:19:28.262Z,14.92
2022-11-10T03:21:55.059Z,14.93
2022-11-10T03:24:21.854Z,14.87
2022-11-10T03:26:48.698Z,14.89
2022-11-10T03:29:15.390Z,14.87
2022-11-10T03:31:42.229Z,14.90
2022-11-10T03:34:08.942Z,14.90
2022-11-10T03:36:35.748Z,14.93
2022-11-10T03:39:02.521Z,14.97
2022-11-10T03:41:29.286Z,14.97
2022-11-10T03:43:56.043Z,14.92
2022-11-10T03:46:22.959Z,14.97
2022-11-10T03:48:53.540Z,14.91
2022-11-10T03:51:20.941Z,14.92
2022-11-10T03:53:47.833Z,14.96
2022-11-10T03:56:14.658Z,14.97
2022-11-10T03:58:41.891Z,15.00
2022-11-10T04:01:08.805Z,14.97
2022-11-10T04:03:35.530Z,14.97
2022-11-10T04:06:20.888Z,14.95
2022-11-10T04:08:59.772Z,14.88
2022-11-10T04:11:46.458Z,14.96
2022-11-10T04:14:31.987Z,14.91
2022-11-10T04:16:58.998Z,14.87
2022-11-10T04:19:25.990Z,14.86
2022-11-10T04:21:52.911Z,14.84
2022-11-10T04:24:20.333Z,14.82
2022-11-10T04:26:48.677Z,14.87
2022-11-10T04:29:18.323Z,14.89
2022-11-10T04:31:45.270Z,14.82
2022-11-10T04:34:14.778Z,14.89
2022-11-10T04:36:43.735Z,14.91
2022-11-10T04:39:11.200Z,14.92
2022-11-10T04:41:38.387Z,14.96
2022-11-10T04:44:05.697Z,14.96
2022-11-10T04:46:37.761Z,14.96
2022-11-10T04:49:06.343Z,14.97
2022-11-10T04:51:38.482Z,14.97
2022-11-10T04:54:06.988Z,14.97
2022-11-10T04:56:35.016Z,14.97
2022-11-10T04:59:01.842Z,14.96
2022-11-10T05:01:28.883Z,14.95
2022-11-10T05:03:55.765Z,14.92
2022-11-10T05:06:23.112Z,14.91
2022-11-10T05:08:50.414Z,14.95
2022-11-10T05:11:18.011Z,14.95
2022-11-10T05:13:45.781Z,14.98
2022-11-10T05:16:13.325Z,15.00
2022-11-10T05:18:40.907Z,14.95
2022-11-10T05:21:07.702Z,14.97
2022-11-10T05:23:42.105Z,15.01
2022-11-10T05:26:14.591Z,14.96
2022-11-10T05:28:43.442Z,14.98
2022-11-10T05:31:11.135Z,15.01
2022-11-10T05:33:38.546Z,14.99
2022-11-10T05:36:06.685Z,14.98
2022-11-10T05:38:34.899Z,14.98
2022-11-10T05:41:03.221Z,14.94
2022-11-10T05:43:30.072Z,15.02
2022-11-10T05:45:56.807Z,15.05
2022-11-10T05:48:23.495Z,15.06
2022-11-10T05:50:50.432Z,15.09
2022-11-10T05:53:17.218Z,15.03
2022-11-10T05:55:44.006Z,15.05
2022-11-10T05:58:10.817Z,15.04
2022-11-10T06:00:37.670Z,15.06
2022-11-10T06:03:13.744Z,15.10
2022-11-10T06:05:40.612Z,15.09
2022-11-10T06:08:07.737Z,15.10
2022-11-10T06:10:35.931Z,15.03
2022-11-10T06:13:03.438Z,15.08
2022-11-10T06:15:30.758Z,15.12
2022-11-10T06:17:58.478Z,15.14
2022-11-10T06:20:25.893Z,15.15
2022-11-10T06:23:13.239Z,15.05
2022-11-10T06:25:41.666Z,15.06
2022-11-10T06:28:09.732Z,15.19
2022-11-10T06:30:37.871Z,15.16
2022-11-10T06:33:04.680Z,15.12
2022-11-10T06:35:31.752Z,15.21
2022-11-10T06:38:06.696Z,15.20
2022-11-10T06:40:33.756Z,15.20
2022-11-10T06:43:00.674Z,15.24
2022-11-10T06:45:30.673Z,15.22
2022-11-10T06:48:06.173Z,15.26
2022-11-10T06:50:33.338Z,15.28
2022-11-10T06:53:01.012Z,15.15
2022-11-10T06:55:28.637Z,15.26
2022-11-10T06:57:55.638Z,15.26
2022-11-10T07:00:22.786Z,15.26
2022-11-10T07:02:59.233Z,15.10
2022-11-10T07:05:25.914Z,15.22
2022-11-10T07:07:52.590Z,15.17
2022-11-10T07:10:19.399Z,15.03
2022-11-10T07:12:46.124Z,15.14
2022-11-10T07:15:12.907Z,15.10
2022-11-10T07:17:44.001Z,15.14
2022-11-10T07:20:11.419Z,15.11
2022-11-10T07:22:39.543Z,15.11
2022-11-10T07:25:06.718Z,15.10
2022-11-10T07:27:33.446Z,15.02
2022-11-10T07:30:00.192Z,15.05
2022-11-10T07:32:27.056Z,15.12
2022-11-10T07:34:53.748Z,15.12
2022-11-10T07:37:20.486Z,15.19
2022-11-10T07:39:47.329Z,15.28
2022-11-10T07:42:14.068Z,15.43
2022-11-10T07:44:40.776Z,15.49
2022-11-10T07:47:07.884Z,15.58
2022-11-10T07:49:34.591Z,15.72
2022-11-10T07:52:01.279Z,15.73
2022-11-10T07:54:28.110Z,15.74
2022-11-10T07:56:54.827Z,15.67
2022-11-10T07:59:21.584Z,15.58
2022-11-10T08:01:48.400Z,15.52
2022-11-10T08:04:15.236Z,15.71
2022-11-10T08:06:42.074Z,15.76
2022-11-10T08:09:08.928Z,15.87
2022-11-10T08:11:35.660Z,16.25
2022-11-10T08:14:02.335Z,16.64
2022-11-10T08:16:29.199Z,16.71
2022-11-10T08:18:56.151Z,16.99
2022-11-10T08:21:22.868Z,17.55
2022-11-10T08:23:49.604Z,17.92
2022-11-10T08:26:17.950Z,18.28
2022-11-10T08:28:44.734Z,18.77
2022-11-10T08:31:11.474Z,19.35
2022-11-10T08:33:38.327Z,19.54
2022-11-10T08:36:05.370Z,19.60
2022-11-10T08:38:32.072Z,19.45
2022-11-10T08:40:58.900Z,19.16
2022-11-10T08:43:25.983Z,18.92
2022-11-10T08:45:55.202Z,18.56
2022-11-10T08:48:22.197Z,18.43
2022-11-10T08:50:50.079Z,18.21
2022-11-10T08:53:22.083Z,18.29
2022-11-10T08:55:49.533Z,18.31
2022-11-10T08:58:19.062Z,18.26
2022-11-10T09:00:46.343Z,18.00
2022-11-10T09:03:19.064Z,17.95
2022-11-10T09:05:53.645Z,17.81
2022-11-10T09:08:24.735Z,17.82
2022-11-10T09:10:51.545Z,18.38
2022-11-10T09:13:20.075Z,18.75
2022-11-10T09:15:49.160Z,18.98
2022-11-10T09:18:15.939Z,19.15
2022-11-10T09:20:43.152Z,19.32
2022-11-10T09:23:16.752Z,19.41
2022-11-10T09:25:49.741Z,19.59
2022-11-10T09:28:17.559Z,19.78
2022-11-10T09:30:48.596Z,19.69
2022-11-10T09:33:15.534Z,20.35
2022-11-10T09:35:43.224Z,20.96
2022-11-10T09:38:11.930Z,21.36
2022-11-10T09:40:44.929Z,21.98
2022-11-10T09:43:21.909Z,22.19
2022-11-10T09:45:52.681Z,22.14
2022-11-10T09:48:27.144Z,22.06
2022-11-10T09:51:06.664Z,22.17
2022-11-10T09:53:47.461Z,22.40
2022-11-10T09:56:27.900Z,23.04
2022-11-10T09:58:54.702Z,23.26
2022-11-10T10:01:43.118Z,23.49
2022-11-10T10:04:29.703Z,23.23
2022-11-10T10:07:11.992Z,22.78
2022-11-10T10:09:55.980Z,22.97
2022-11-10T10:12:41.002Z,23.61
2022-11-10T10:15:40.653Z,24.21
2022-11-10T10:18:07.371Z,24.42
2022-11-10T10:20:48.436Z,24.16
2022-11-10T10:23:54.105Z,24.10
2022-11-10T10:26:18.574Z,24.54
2022-11-10T10:28:46.606Z,25.37
2022-11-10T10:31:19.127Z,25.41
2022-11-10T10:33:47.439Z,25.29
2022-11-10T10:36:24.685Z,25.25
2022-11-10T10:39:03.069Z,25.61
2022-11-10T10:41:33.448Z,25.33
2022-11-10T10:44:12.027Z,25.06
2022-11-10T10:47:05.140Z,24.72
2022-11-10T10:49:37.009Z,24.60
2022-11-10T10:52:05.648Z,24.47
2022-11-10T10:54:34.788Z,24.47
2022-11-10T10:57:30.348Z,25.14
2022-11-10T11:00:21.642Z,26.17
2022-11-10T11:03:06.875Z,26.84
2022-11-10T11:05:33.642Z,27.24
2022-11-10T11:08:02.749Z,27.74
2022-11-10T11:10:33.999Z,28.74
2022-11-10T11:13:22.781Z,28.57
2022-11-10T11:16:07.490Z,29.30
2022-11-10T11:18:39.592Z,30.53
2022-11-10T11:21:24.017Z,31.66
2022-11-10T11:24:02.669Z,32.00
2022-11-10T11:26:53.638Z,32.09
2022-11-10T11:29:23.228Z,32.19
2022-11-10T11:32:08.530Z,32.47
2022-11-10T11:35:00.368Z,32.59
2022-11-10T11:37:39.098Z,33.03
2022-11-10T11:40:27.001Z,33.93
2022-11-10T11:43:12.456Z,33.65
2022-11-10T11:45:55.263Z,33.92
2022-11-10T11:48:45.660Z,34.77
2022-11-10T11:51:23.938Z,35.72
2022-11-10T11:54:11.007Z,35.64
2022-11-10T11:56:43.954Z,36.15
2022-11-10T11:59:28.449Z,36.23
2022-11-10T12:02:23.106Z,36.62
2022-11-10T12:05:08.037Z,37.54
2022-11-10T12:07:53.027Z,38.36
2022-11-10T12:10:43.431Z,37.93
2022-11-10T12:13:31.771Z,38.05
2022-11-10T12:16:21.231Z,38.10
2022-11-10T12:18:56.880Z,38.28
2022-11-10T12:21:45.418Z,38.53
2022-11-10T12:24:33.887Z,39.21
2022-11-10T12:27:25.011Z,39.61
2022-11-10T12:30:04.416Z,39.60
2022-11-10T12:32:37.033Z,38.30
2022-11-10T12:35:15.351Z,38.26
2022-11-10T12:37:49.119Z,38.28
2022-11-10T12:40:19.583Z,38.92
2022-11-10T12:42:55.903Z,39.46
2022-11-10T12:45:32.364Z,39.39
2022-11-10T12:48:00.275Z,39.60
2022-11-10T12:50:38.935Z,39.44
2022-11-10T12:53:19.294Z,39.39
2022-11-10T12:55:51.075Z,39.35
2022-11-10T12:58:19.424Z,38.52
2022-11-10T13:01:01.088Z,38.30
2022-11-10T13:03:39.704Z,37.78
2022-11-10T13:06:23.419Z,36.57
2022-11-10T13:08:51.171Z,34.70
2022-11-10T13:11:17.827Z,33.08
2022-11-10T13:13:59.805Z,31.44
2022-11-10T13:16:39.038Z,29.84
2022-11-10T13:19:07.548Z,28.00
2022-11-10T13:21:52.782Z,27.40
2022-11-10T13:24:31.517Z,27.00
2022-11-10T13:27:06.617Z,26.42
2022-11-10T13:29:55.717Z,25.75
2022-11-10T13:32:27.725Z,25.39
2022-11-10T13:34:55.646Z,25.10
2022-11-10T13:37:34.260Z,24.72
2022-11-10T13:40:25.969Z,24.33
2022-11-10T13:42:58.732Z,24.19
2022-11-10T13:45:36.729Z,24.08
2022-11-10T13:48:32.935Z,23.85
2022-11-10T13:51:14.764Z,23.72
2022-11-10T13:54:10.249Z,23.38
2022-11-10T13:56:37.022Z,23.41
2022-11-10T13:59:26.383Z,23.22
2022-11-10T14:01:53.231Z,23.11
2022-11-10T14:04:46.561Z,22.93
2022-11-10T14:07:17.341Z,22.93
2022-11-10T14:09:48.691Z,22.82
2022-11-10T14:12:39.534Z,22.69
2022-11-10T14:15:12.247Z,22.50
2022-11-10T14:17:48.222Z,22.31
2022-11-10T14:20:23.796Z,22.15
2022-11-10T14:22:52.745Z,22.22
2022-11-10T14:25:36.700Z,21.95
2022-11-10T14:28:18.865Z,21.91
2022-11-10T14:30:52.055Z,21.77
2022-11-10T14:33:19.227Z,21.65
2022-11-10T14:36:04.313Z,21.47
2022-11-10T14:38:34.179Z,21.34
2022-11-10T14:41:02.117Z,20.95
2022-11-10T14:43:37.985Z,21.13
2022-11-10T14:46:07.445Z,21.17
2022-11-10T14:48:37.116Z,21.11
2022-11-10T14:51:08.309Z,20.99
2022-11-10T14:53:37.602Z,20.81
2022-11-10T14:56:07.507Z,20.71
2022-11-10T14:58:35.451Z,20.29
2022-11-10T15:01:04.172Z,20.54
2022-11-10T15:03:33.816Z,20.54
2022-11-10T15:06:01.445Z,20.47
2022-11-10T15:08:29.579Z,20.47
2022-11-10T15:10:56.915Z,20.43
2022-11-10T15:13:33.645Z,20.40
2022-11-10T15:16:29.976Z,20.29
2022-11-10T15:19:30.299Z,20.22
2022-11-10T15:22:06.159Z,20.21
2022-11-10T15:24:33.525Z,20.23
2022-11-10T15:27:00.744Z,20.20
2022-11-10T15:29:29.190Z,20.12
2022-11-10T15:31:56.138Z,19.96
2022-11-10T15:34:39.423Z,19.98
2022-11-10T15:37:29.122Z,19.88
2022-11-10T15:40:35.945Z,19.84
2022-11-10T15:43:16.887Z,19.83
2022-11-10T15:45:45.288Z,19.83
2022-11-10T15:48:17.132Z,19.75
2022-11-10T15:50:46.986Z,19.67
2022-11-10T15:53:26.549Z,19.58
2022-11-10T15:55:53.273Z,19.58
2022-11-10T15:58:22.231Z,19.60
2022-11-10T16:00:49.756Z,19.53
2022-11-10T16:03:22.108Z,19.42
2022-11-10T16:05:49.011Z,19.49
2022-11-10T16:08:22.786Z,19.58
2022-11-10T16:10:55.712Z,19.74
2022-11-10T16:13:28.787Z,19.72
2022-11-10T16:15:56.340Z,19.60
2022-11-10T16:18:26.189Z,19.54
2022-11-10T16:20:53.108Z,19.16
2022-11-10T16:23:20.285Z,19.34
2022-11-10T16:25:50.153Z,19.25
2022-11-10T16:28:27.188Z,19.21
2022-11-10T16:30:54.733Z,19.02
2022-11-10T16:33:23.757Z,19.13
2022-11-10T16:35:52.288Z,19.08
2022-11-10T16:38:22.339Z,19.07
2022-11-10T16:40:55.595Z,19.03
2022-11-10T16:43:22.739Z,18.96
2022-11-10T16:45:52.795Z,18.99
2022-11-10T16:48:22.968Z,18.96
2022-11-10T16:50:53.070Z,18.88
2022-11-10T16:53:25.053Z,18.79
2022-11-10T16:55:51.812Z,18.80
2022-11-10T16:58:19.060Z,18.68
2022-11-10T17:00:47.358Z,18.63
2022-11-10T17:03:29.005Z,18.54
2022-11-10T17:05:55.899Z,18.45
2022-11-10T17:08:25.276Z,18.47
2022-11-10T17:10:52.358Z,18.44
2022-11-10T17:13:19.194Z,18.41
2022-11-10T17:15:47.209Z,18.34
2022-11-10T17:18:17.182Z,18.13
2022-11-10T17:20:48.511Z,18.18
2022-11-10T17:23:21.131Z,18.18
2022-11-10T17:25:49.797Z,18.05
2022-11-10T17:28:18.503Z,18.07
2022-11-10T17:30:45.912Z,18.04
2022-11-10T17:33:13.198Z,18.00
2022-11-10T17:35:45.491Z,17.94
2022-11-10T17:38:14.962Z,17.90
2022-11-10T17:40:45.661Z,17.69
2022-11-10T17:43:13.712Z,17.80
2022-11-10T17:45:40.781Z,17.77
2022-11-10T17:48:08.240Z,17.68
2022-11-10T17:50:36.243Z,17.65
2022-11-10T17:53:09.175Z,17.61
2022-11-10T17:55:37.024Z,17.52
2022-11-10T17:58:03.929Z,17.54
2022-11-10T18:00:30.833Z,17.52
2022-11-10T18:02:57.539Z,17.48
2022-11-10T18:05:24.286Z,17.49
2022-11-10T18:07:52.062Z,17.46
2022-11-10T18:10:18.866Z,17.32
2022-11-10T18:12:45.666Z,17.44
2022-11-10T18:15:14.418Z,17.44
2022-11-10T18:17:42.049Z,17.43
2022-11-10T18:20:10.703Z,17.40
2022-11-10T18:22:37.559Z,17.34
2022-11-10T18:25:05.468Z,17.42
2022-11-10T18:27:32.632Z,17.40
2022-11-10T18:29:59.819Z,17.40
2022-11-10T18:32:28.274Z,17.40
2022-11-10T18:34:54.984Z,17.37
2022-11-10T18:37:21.815Z,17.36
2022-11-10T18:39:48.532Z,17.36
2022-11-10T18:42:15.535Z,17.29
2022-11-10T18:44:42.561Z,17.33
2022-11-10T18:47:12.277Z,17.31
2022-11-10T18:49:38.990Z,17.22
2022-11-10T18:52:05.812Z,17.20
2022-11-10T18:54:32.603Z,17.15
2022-11-10T18:56:59.377Z,17.20
2022-11-10T18:59:26.155Z,17.06
2022-11-10T19:01:53.022Z,17.15
2022-11-10T19:04:19.851Z,17.14
2022-11-10T19:06:46.570Z,16.97
2022-11-10T19:09:14.844Z,17.09
2022-11-10T19:11:41.541Z,17.03
2022-11-10T19:14:08.265Z,17.05
2022-11-10T19:16:35.095Z,17.06
2022-11-10T19:19:02.172Z,17.04
2022-11-10T19:21:29.110Z,16.98
2022-11-10T19:23:59.202Z,17.03
2022-11-10T19:26:26.991Z,16.64
2022-11-10T19:28:58.660Z,16.91
2022-11-10T19:31:26.296Z,16.92
2022-11-10T19:33:55.461Z,16.90
2022-11-10T19:36:24.527Z,16.86
2022-11-10T19:38:53.521Z,16.83
2022-11-10T19:41:28.906Z,16.80
2022-11-10T19:43:56.255Z,16.82
2022-11-10T19:46:28.513Z,16.83
2022-11-10T19:48:55.839Z,16.86
2022-11-10T19:51:24.918Z,16.85
2022-11-10T19:54:02.763Z,16.80
2022-11-10T19:56:32.068Z,16.82
2022-11-10T19:58:59.307Z,16.83
2022-11-10T20:01:26.623Z,16.84
2022-11-10T20:03:53.712Z,16.84
2022-11-10T20:06:22.700Z,16.83
2022-11-10T20:08:50.405Z,16.84
2022-11-10T20:11:21.639Z,16.85
2022-11-10T20:13:55.036Z,16.84
2022-11-10T20:16:23.894Z,16.77
2022-11-10T20:18:50.800Z,16.74
2022-11-10T20:21:21.149Z,16.64
2022-11-10T20:23:55.947Z,16.66
2022-11-10T20:26:23.854Z,16.57
2022-11-10T20:28:50.863Z,16.58
2022-11-10T20:31:24.604Z,16.56
2022-11-10T20:33:53.571Z,16.55
2022-11-10T20:36:29.159Z,16.49
2022-11-10T20:38:58.223Z,16.45
2022-11-10T20:41:27.424Z,16.49
2022-11-10T20:43:55.184Z,16.43
2022-11-10T20:46:48.418Z,16.49
2022-11-10T20:49:09.836Z,16.34
2022-11-10T20:51:36.786Z,16.29
2022-11-10T20:54:03.560Z,16.35
2022-11-10T20:56:30.512Z,16.36
2022-11-10T20:58:57.923Z,16.29
2022-11-10T21:01:25.135Z,16.33
2022-11-10T21:03:52.909Z,16.46
2022-11-10T21:06:19.673Z,16.44
2022-11-10T21:08:46.356Z,16.51
2022-11-10T21:11:33.152Z,16.52
2022-11-10T21:14:01.582Z,16.50
2022-11-10T21:16:28.691Z,16.53
2022-11-10T21:18:56.779Z,16.63
2022-11-10T21:21:34.675Z,16.64
2022-11-10T21:24:05.927Z,16.64
2022-11-10T21:26:34.378Z,16.46
2022-11-10T21:29:02.365Z,16.57
2022-11-10T21:31:30.806Z,16.53
2022-11-10T21:33:58.869Z,16.52
2022-11-10T21:36:29.495Z,16.43
2022-11-10T21:38:58.100Z,16.33
2022-11-10T21:41:25.921Z,16.21
2022-11-10T21:43:52.682Z,16.11
2022-11-10T21:46:19.735Z,16.02
2022-11-10T21:48:46.524Z,16.01
2022-11-10T21:51:14.375Z,15.96
2022-11-10T21:53:44.832Z,15.97
2022-11-10T21:56:12.484Z,16.00
2022-11-10T21:58:39.902Z,16.03
2022-11-10T22:01:15.446Z,16.03
2022-11-10T22:03:42.230Z,16.02
2022-11-10T22:06:11.485Z,16.00
2022-11-10T22:08:39.131Z,15.94
2022-11-10T22:11:30.044Z,16.03
2022-11-10T22:14:15.641Z,15.88
2022-11-10T22:17:04.071Z,15.94
2022-11-10T22:19:32.642Z,15.94
2022-11-10T22:22:03.674Z,15.90
2022-11-10T22:24:30.879Z,15.88
2022-11-10T22:27:00.204Z,15.86
2022-11-10T22:29:31.658Z,15.88
2022-11-10T22:32:02.241Z,15.86
2022-11-10T22:34:29.313Z,15.84
2022-11-10T22:36:56.355Z,15.86
2022-11-10T22:39:23.430Z,15.81
2022-11-10T22:42:08.776Z,15.81
2022-11-10T22:44:36.619Z,15.78
2022-11-10T22:47:03.354Z,15.82
2022-11-10T22:49:30.080Z,15.71
2022-11-10T22:51:56.975Z,15.84
2022-11-10T22:54:24.172Z,15.86
2022-11-10T22:56:51.943Z,15.87
2022-11-10T22:59:19.298Z,15.84
2022-11-10T23:01:46.504Z,15.77
2022-11-10T23:04:16.048Z,15.81
2022-11-10T23:06:43.244Z,15.75
2022-11-10T23:09:10.064Z,15.74
2022-11-10T23:11:36.967Z,15.61
2022-11-10T23:14:03.878Z,15.57
2022-11-10T23:16:33.842Z,15.48
2022-11-10T23:19:01.310Z,15.45
2022-11-10T23:21:30.775Z,15.40
2022-11-10T23:23:57.756Z,15.37
2022-11-10T23:26:34.158Z,15.31
2022-11-10T23:29:01.033Z,15.38
2022-11-10T23:31:29.651Z,15.41
2022-11-10T23:33:57.693Z,15.27
2022-11-10T23:36:26.317Z,15.34
2022-11-10T23:38:55.010Z,15.48
2022-11-10T23:41:26.948Z,15.53
2022-11-10T23:43:54.309Z,15.48
2022-11-10T23:46:21.033Z,15.51
2022-11-10T23:48:47.904Z,15.56
2022-11-10T23:51:16.292Z,15.57
2022-11-10T23:53:43.071Z,15.53
2022-11-10T23:56:12.509Z,15.48
2022-11-10T23:58:39.746Z,15.43
